Time;durP1;ratioP1;P1;durP2;ratioP2;P2;SDS_P1;SDS_P2;PMS_P1;PMS_P2;Temp;Humidity;BMP_temperature;BMP_pressure;BME280_temperature;BME280_humidity;BME280_pressure;Samples;Min_cycle;Max_cycle;Signal;HPM_P1;HPM_P2
2021/09/06 00:01:47;;;;;;;;;18.75;15.75;;;;;26.20;46.41;101707.41;5092786;27;52035;-56
2021/09/06 00:04:13;;;;;;;;;19.75;16.25;;;;;26.18;46.57;101710.44;5077298;27;51051;-56
2021/09/06 00:06:40;;;;;;;;;14.25;14.25;;;;;26.17;46.58;101703.19;5077320;27;51218;-56
2021/09/06 00:09:07;;;;;;;;;18.00;17.00;;;;;26.17;46.80;101705.13;5078452;27;51155;-57
2021/09/06 00:11:32;;;;;;;;;15.50;14.75;;;;;26.16;46.99;101700.66;5085001;27;51116;-57
2021/09/06 00:13:58;;;;;;;;;15.75;15.75;;;;;26.16;46.57;101706.22;5077282;27;51942;-56
2021/09/06 00:16:23;;;;;;;;;15.50;15.50;;;;;26.15;47.06;101713.66;5078414;27;51251;-55
2021/09/06 00:18:49;;;;;;;;;15.25;13.75;;;;;26.15;46.77;101698.94;5081413;27;51012;-55
2021/09/06 00:21:14;;;;;;;;;16.50;14.25;;;;;26.16;47.37;101697.88;5094089;27;51161;-57
2021/09/06 00:23:39;;;;;;;;;13.50;13.50;;;;;26.14;46.88;101692.53;5091478;27;51191;-57
2021/09/06 00:26:05;;;;;;;;;13.00;12.50;;;;;26.15;46.72;101693.38;5089056;27;51357;-55
2021/09/06 00:28:31;;;;;;;;;16.50;15.50;;;;;26.14;47.14;101702.81;5092151;27;51194;-54
2021/09/06 00:30:57;;;;;;;;;14.75;14.75;;;;;26.14;46.84;101702.81;5095977;27;51166;-55
2021/09/06 00:33:24;;;;;;;;;17.25;16.00;;;;;26.13;47.26;101696.41;5095845;27;51944;-56
2021/09/06 00:35:49;;;;;;;;;21.50;19.00;;;;;26.12;47.31;101694.72;5096693;27;51090;-55
2021/09/06 00:38:17;;;;;;;;;17.75;17.25;;;;;26.13;46.93;101692.78;5096989;27;51175;-58
2021/09/06 00:40:44;;;;;;;;;19.50;15.50;;;;;26.13;46.84;101696.41;5095575;27;50989;-56
2021/09/06 00:43:10;;;;;;;;;14.75;14.75;;;;;26.10;46.53;101696.91;5095802;27;51293;-55
2021/09/06 00:45:37;;;;;;;;;18.00;18.00;;;;;26.11;46.58;101704.13;5098595;27;51141;-56
2021/09/06 00:48:03;;;;;;;;;17.75;16.00;;;;;26.11;46.40;101703.28;5096634;27;51424;-57
2021/09/06 00:50:28;;;;;;;;;18.75;17.00;;;;;26.11;47.09;101706.06;5096520;27;52625;-56
2021/09/06 00:52:53;;;;;;;;;18.50;16.00;;;;;26.12;46.79;101704.97;5096695;27;50933;-56
2021/09/06 00:55:19;;;;;;;;;20.00;18.25;;;;;26.10;46.53;101707.16;5096587;27;51359;-56
2021/09/06 00:57:45;;;;;;;;;13.75;13.75;;;;;26.10;47.14;101712.72;5095044;27;50929;-58
2021/09/06 01:00:12;;;;;;;;;15.25;15.25;;;;;26.09;46.65;101717.41;5084567;27;52915;-57
2021/09/06 01:02:38;;;;;;;;;16.75;15.75;;;;;26.09;46.44;101717.41;5095860;27;51205;-56
2021/09/06 01:05:04;;;;;;;;;19.00;16.00;;;;;26.07;46.53;101715.97;5094844;27;51108;-57
2021/09/06 01:07:30;;;;;;;;;17.00;12.75;;;;;26.08;46.58;101717.66;5090411;27;51260;-58
2021/09/06 01:09:55;;;;;;;;;20.00;17.50;;;;;26.07;46.85;101713.19;5095473;27;51143;-56
2021/09/06 01:12:20;;;;;;;;;15.25;14.50;;;;;26.07;46.99;101714.03;5083469;27;51184;-54
2021/09/06 01:14:46;;;;;;;;;16.75;15.50;;;;;26.06;46.53;101712.34;5092723;27;51088;-56
2021/09/06 01:17:11;;;;;;;;;21.00;18.00;;;;;26.06;46.84;101714.28;5094333;27;51227;-57
2021/09/06 01:19:38;;;;;;;;;22.25;20.25;;;;;26.05;46.76;101705.13;5097749;27;51110;-55
2021/09/06 01:22:04;;;;;;;;;21.00;19.00;;;;;26.04;46.57;101705.31;5101454;27;51386;-57
2021/09/06 01:24:29;;;;;;;;;22.25;16.25;;;;;26.03;46.51;101710.03;5077241;27;51093;-58
2021/09/06 01:26:55;;;;;;;;;18.00;16.50;;;;;26.03;46.95;101704.47;5089408;27;51117;-59
2021/09/06 01:29:20;;;;;;;;;18.25;15.50;;;;;26.02;46.43;101708.34;5096092;27;51065;-57
2021/09/06 01:31:46;;;;;;;;;16.75;14.75;;;;;26.02;46.85;101704.72;5095691;27;51021;-59
2021/09/06 01:34:12;;;;;;;;;18.75;15.75;;;;;26.01;46.72;101706.66;5095715;27;51389;-56
2021/09/06 01:36:38;;;;;;;;;17.00;13.75;;;;;26.01;46.35;101703.03;5095397;27;51246;-56
2021/09/06 01:39:05;;;;;;;;;15.75;15.75;;;;;26.00;46.39;101707.75;5094987;27;51169;-56
2021/09/06 01:41:31;;;;;;;;;17.00;17.00;;;;;26.00;46.27;101704.13;5094949;27;51358;-56
2021/09/06 01:43:57;;;;;;;;;19.25;16.50;;;;;26.00;46.62;101707.75;5095591;27;51158;-56
2021/09/06 01:46:27;;;;;;;;;15.25;14.75;;;;;26.00;46.57;101712.44;5078928;27;51536;-56
2021/09/06 01:48:54;;;;;;;;;18.75;16.75;;;;;25.99;46.73;101719.09;5074506;27;51798;-50
2021/09/06 01:51:19;;;;;;;;;18.75;15.25;;;;;25.99;46.14;101710.75;5075127;28;51129;-54
2021/09/06 01:53:45;;;;;;;;;17.00;15.00;;;;;25.99;46.59;101713.53;5074683;28;51175;-54
2021/09/06 01:56:11;;;;;;;;;14.50;13.00;;;;;25.98;46.50;101715.47;5075191;28;51070;-53
2021/09/06 01:58:38;;;;;;;;;13.50;12.50;;;;;25.97;46.37;101716.56;5075143;28;51017;-54
2021/09/06 02:01:03;;;;;;;;;15.75;15.00;;;;;25.97;46.47;101718.50;5073618;28;51158;-57
2021/09/06 02:03:28;;;;;;;;;18.00;15.00;;;;;25.96;46.70;101720.44;5066762;28;51061;-55
2021/09/06 02:05:54;;;;;;;;;13.50;13.50;;;;;25.95;46.19;101723.41;5075061;28;51440;-54
2021/09/06 02:08:19;;;;;;;;;16.25;13.25;;;;;25.95;46.55;101720.63;5074913;28;51934;-59
2021/09/06 02:10:44;;;;;;;;;21.75;13.75;;;;;25.95;46.11;101721.50;5075259;28;51089;-56
2021/09/06 02:13:10;;;;;;;;;15.25;13.50;;;;;25.94;46.32;101719.78;5074691;28;51022;-54
2021/09/06 02:15:35;;;;;;;;;14.00;14.00;;;;;25.93;46.05;101718.09;5070095;28;51282;-55
2021/09/06 02:18:00;;;;;;;;;13.00;12.25;;;;;25.93;45.76;101720.88;5074784;27;50974;-55
2021/09/06 02:20:26;;;;;;;;;13.00;12.00;;;;;25.92;46.13;101719.19;5057488;28;51154;-55
2021/09/06 02:22:51;;;;;;;;;14.50;14.25;;;;;25.90;46.06;101713.88;5077525;28;51646;-55
2021/09/06 02:25:16;;;;;;;;;15.00;13.25;;;;;25.90;45.85;101719.44;5077638;28;51228;-55
2021/09/06 02:27:42;;;;;;;;;14.00;14.00;;;;;25.89;45.60;101717.75;5078168;28;51012;-55
2021/09/06 02:30:08;;;;;;;;;13.50;13.00;;;;;25.89;45.32;101719.69;5077570;27;51022;-54
2021/09/06 02:32:33;;;;;;;;;13.50;12.50;;;;;25.88;45.43;101729.94;5078576;28;51239;-54
2021/09/06 02:34:59;;;;;;;;;13.25;12.00;;;;;25.86;45.56;101726.56;5077083;28;51153;-54
2021/09/06 02:37:24;;;;;;;;;18.00;14.50;;;;;25.86;45.67;101728.50;5077657;28;51090;-56
2021/09/06 02:39:50;;;;;;;;;15.75;14.75;;;;;25.86;45.48;101736.81;5067411;28;51604;-55
2021/09/06 02:42:15;;;;;;;;;12.25;12.25;;;;;25.84;45.86;101731.47;5068281;28;51615;-55
2021/09/06 02:44:40;;;;;;;;;18.00;17.00;;;;;25.84;45.46;101731.47;5079663;27;51219;-54
2021/09/06 02:47:06;;;;;;;;;16.50;16.25;;;;;25.84;45.83;101733.41;5089924;27;51065;-55
2021/09/06 02:49:31;;;;;;;;;15.25;13.75;;;;;25.83;45.79;101734.50;5078402;27;51167;-54
2021/09/06 02:51:57;;;;;;;;;18.00;16.75;;;;;25.82;45.90;101733.66;5078717;27;51049;-54
2021/09/06 02:54:22;;;;;;;;;16.25;13.75;;;;;25.82;45.80;101736.41;5079694;27;51173;-55
2021/09/06 02:56:47;;;;;;;;;16.00;15.50;;;;;25.81;46.05;101734.72;5078125;27;51965;-55
2021/09/06 02:59:13;;;;;;;;;17.75;16.75;;;;;25.80;46.18;101738.59;5078408;27;51170;-56
2021/09/06 03:01:38;;;;;;;;;16.50;16.50;;;;;25.80;46.30;101746.06;5078201;27;51261;-54
2021/09/06 03:04:04;;;;;;;;;17.50;14.50;;;;;25.81;46.22;101747.75;5081385;27;51138;-59
2021/09/06 03:06:29;;;;;;;;;18.50;15.25;;;;;25.79;46.26;101736.91;5086518;27;51010;-55
2021/09/06 03:08:55;;;;;;;;;15.25;12.50;;;;;25.79;46.15;101741.59;5078213;27;51223;-54
2021/09/06 03:11:24;;;;;;;;;16.75;16.75;;;;;25.77;46.14;101741.84;5078048;27;51258;-55
2021/09/06 03:13:51;;;;;;;;;17.75;17.75;;;;;25.78;46.30;101734.38;5079497;27;51230;-56
2021/09/06 03:16:16;;;;;;;;;17.75;15.00;;;;;25.78;46.20;101742.69;5088793;27;51136;-55
2021/09/06 03:18:42;;;;;;;;;17.25;16.50;;;;;25.76;46.24;101740.16;5077933;27;51105;-54
2021/09/06 03:21:07;;;;;;;;;19.75;16.75;;;;;25.76;46.67;101740.16;5077618;27;51364;-55
2021/09/06 03:23:32;;;;;;;;;17.50;17.25;;;;;25.76;46.23;101737.38;5060961;27;51131;-56
2021/09/06 03:25:58;;;;;;;;;16.50;15.50;;;;;25.75;46.55;101734.84;5079306;27;51105;-56
2021/09/06 03:28:23;;;;;;;;;19.25;15.00;;;;;25.75;46.45;101732.06;5088902;27;51092;-57
2021/09/06 03:30:48;;;;;;;;;17.50;15.25;;;;;25.74;46.31;101741.44;5089191;27;51684;-57
2021/09/06 03:33:14;;;;;;;;;16.00;15.50;;;;;25.74;46.15;101738.69;5096470;27;50972;-57
2021/09/06 03:35:42;;;;;;;;;18.75;14.75;;;;;25.72;46.32;101738.06;5081680;27;52659;-55
2021/09/06 03:38:07;;;;;;;;;16.25;15.25;;;;;25.72;46.04;101735.31;5097778;27;51381;-56
2021/09/06 03:40:33;;;;;;;;;15.00;13.75;;;;;25.72;46.25;101738.06;5095602;27;51092;-56
2021/09/06 03:42:58;;;;;;;;;15.25;14.25;;;;;25.71;46.65;101741.94;5068570;27;51308;-56
2021/09/06 03:45:23;;;;;;;;;12.75;12.75;;;;;25.70;46.29;101735.53;5077318;27;51973;-56
2021/09/06 03:47:48;;;;;;;;;15.75;14.75;;;;;25.68;46.63;101737.69;5084621;27;51083;-55
2021/09/06 03:50:14;;;;;;;;;18.50;17.25;;;;;25.70;46.22;101732.75;5087079;27;51133;-55
2021/09/06 03:52:39;;;;;;;;;16.25;16.25;;;;;25.68;46.42;101734.06;5079995;27;51369;-57
2021/09/06 03:55:05;;;;;;;;;16.25;15.25;;;;;25.66;46.33;101725.97;5077534;27;51322;-56
2021/09/06 03:57:30;;;;;;;;;14.50;14.50;;;;;25.66;46.45;101733.47;5087257;27;51152;-55
2021/09/06 03:59:56;;;;;;;;;15.50;14.50;;;;;25.66;46.60;101733.47;5081048;27;51060;-55
2021/09/06 04:02:21;;;;;;;;;14.00;13.50;;;;;25.66;46.30;101733.47;5078962;27;51124;-56
2021/09/06 04:04:46;;;;;;;;;16.00;13.75;;;;;25.63;46.42;101727.28;5096727;27;51021;-55
2021/09/06 04:07:12;;;;;;;;;16.25;16.25;;;;;25.65;46.31;101732.63;5097133;27;51095;-55
2021/09/06 04:09:37;;;;;;;;;19.25;17.00;;;;;25.63;46.36;101732.81;5080232;27;51192;-55
2021/09/06 04:12:03;;;;;;;;;16.25;13.25;;;;;25.64;46.44;101736.47;5078899;27;51291;-56
2021/09/06 04:14:29;;;;;;;;;18.00;15.50;;;;;25.62;46.26;101728.34;5058996;27;51108;-56
2021/09/06 04:16:54;;;;;;;;;16.50;16.50;;;;;25.62;46.25;101731.13;5084821;27;51341;-56
2021/09/06 04:19:19;;;;;;;;;14.50;14.50;;;;;25.61;46.41;101731.38;5079101;27;51898;-56
2021/09/06 04:21:45;;;;;;;;;15.00;15.00;;;;;25.61;46.38;101726.66;5083438;27;51112;-56
2021/09/06 04:24:10;;;;;;;;;14.25;14.25;;;;;25.61;46.36;101731.38;5076998;27;50953;-56
2021/09/06 04:26:35;;;;;;;;;20.75;14.00;;;;;25.60;46.48;101733.31;5083821;27;51099;-55
2021/09/06 04:29:00;;;;;;;;;15.00;14.25;;;;;25.60;46.34;101736.06;5096288;27;51157;-55
2021/09/06 04:31:26;;;;;;;;;20.25;16.75;;;;;25.59;46.18;101739.09;5095370;27;51094;-56
2021/09/06 04:33:51;;;;;;;;;16.50;15.50;;;;;25.58;46.25;101741.03;5077902;27;51599;-56
2021/09/06 04:36:17;;;;;;;;;17.00;16.50;;;;;25.58;46.22;101735.47;5077128;27;51089;-56
2021/09/06 04:38:42;;;;;;;;;15.75;14.00;;;;;25.57;46.01;101747.66;5082868;27;51127;-57
2021/09/06 04:41:07;;;;;;;;;16.25;15.00;;;;;25.57;46.43;101747.66;5090950;27;51032;-56
2021/09/06 04:43:33;;;;;;;;;16.50;15.00;;;;;25.56;46.20;101757.06;5089269;27;51858;-56
2021/09/06 04:45:58;;;;;;;;;17.00;17.00;;;;;25.55;46.09;101754.53;5096449;27;51216;-57
2021/09/06 04:48:23;;;;;;;;;17.25;15.25;;;;;25.55;46.37;101760.06;5095960;27;51255;-56
2021/09/06 04:50:48;;;;;;;;;15.75;15.00;;;;;25.55;46.36;101766.47;5096419;27;51098;-55
2021/09/06 04:53:14;;;;;;;;;12.75;12.75;;;;;25.54;46.26;101763.94;5091358;27;51146;-56
2021/09/06 04:55:39;;;;;;;;;17.50;16.00;;;;;25.54;46.32;101763.94;5091144;27;51175;-54
2021/09/06 04:58:05;;;;;;;;;16.25;13.75;;;;;25.53;46.10;101765.88;5076457;27;51315;-55
2021/09/06 05:00:30;;;;;;;;;19.50;16.00;;;;;25.53;46.26;101764.97;5078902;27;51261;-57
2021/09/06 05:02:56;;;;;;;;;13.25;13.25;;;;;25.53;46.20;101768.63;5095551;27;51031;-55
2021/09/06 05:05:21;;;;;;;;;15.25;14.25;;;;;25.53;46.33;101773.31;5091624;27;51052;-56
2021/09/06 05:07:47;;;;;;;;;18.75;18.50;;;;;25.51;46.27;101765.22;5095463;27;51191;-54
2021/09/06 05:10:12;;;;;;;;;18.75;14.75;;;;;25.51;46.07;101769.94;5095234;27;51021;-55
2021/09/06 05:12:37;;;;;;;;;20.00;17.25;;;;;25.50;46.24;101779.34;5085937;27;51142;-54
2021/09/06 05:15:03;;;;;;;;;14.75;12.50;;;;;25.50;46.42;101782.09;5076141;27;51088;-56
2021/09/06 05:17:29;;;;;;;;;15.00;14.25;;;;;25.49;46.13;101786.81;5078525;27;51250;-55
2021/09/06 05:19:54;;;;;;;;;16.50;15.25;;;;;25.49;45.98;101784.03;5076518;27;51211;-55
2021/09/06 05:22:19;;;;;;;;;13.50;13.25;;;;;25.49;46.16;101789.59;5094373;27;50945;-53
2021/09/06 05:24:44;;;;;;;;;16.50;14.75;;;;;25.48;46.12;101798.16;5076177;27;51047;-56
2021/09/06 05:27:10;;;;;;;;;20.75;16.50;;;;;25.46;46.39;101789.22;5092385;27;51210;-54
2021/09/06 05:29:35;;;;;;;;;13.00;12.25;;;;;25.46;45.91;101792.00;5095146;27;51002;-55
2021/09/06 05:32:01;;;;;;;;;17.00;15.25;;;;;25.46;45.91;101794.75;5089094;27;51195;-55
2021/09/06 05:34:26;;;;;;;;;18.00;15.50;;;;;25.45;46.13;101801.41;5084539;27;51333;-56
2021/09/06 05:36:52;;;;;;;;;17.25;16.50;;;;;25.45;46.12;101798.63;5078434;27;51330;-57
2021/09/06 05:39:17;;;;;;;;;16.75;13.75;;;;;25.44;46.25;101808.88;5081733;27;50962;-58
2021/09/06 05:41:44;;;;;;;;;19.25;14.75;;;;;25.45;46.08;101818.03;5085114;27;52107;-55
2021/09/06 05:44:10;;;;;;;;;17.75;16.25;;;;;25.43;46.02;101818.28;5072619;27;51241;-56
2021/09/06 05:46:35;;;;;;;;;16.00;14.00;;;;;25.43;46.02;101822.94;5073224;27;51164;-58
2021/09/06 05:49:00;;;;;;;;;19.75;15.00;;;;;25.42;46.18;101827.66;5085372;27;51175;-58
2021/09/06 05:51:26;;;;;;;;;17.00;15.75;;;;;25.42;45.96;101829.56;5092151;27;51536;-58
2021/09/06 05:53:51;;;;;;;;;16.75;15.75;;;;;25.39;46.01;101836.44;5094651;27;51244;-58
2021/09/06 05:56:20;;;;;;;;;18.25;13.75;;;;;25.38;46.31;101831.13;5090653;27;51158;-58
2021/09/06 05:58:45;;;;;;;;;21.50;16.25;;;;;25.38;46.12;101837.53;5080011;27;51164;-57
2021/09/06 06:01:11;;;;;;;;;19.25;17.75;;;;;25.36;45.99;101838.84;5085295;27;51793;-59
2021/09/06 06:03:36;;;;;;;;;15.00;15.00;;;;;25.37;46.37;101843.31;5078481;27;51293;-59
2021/09/06 06:06:01;;;;;;;;;12.75;12.75;;;;;25.36;46.12;101844.38;5088277;27;51146;-59
2021/09/06 06:08:27;;;;;;;;;17.00;15.00;;;;;25.36;46.11;101844.38;5089878;27;50982;-59
2021/09/06 06:10:52;;;;;;;;;16.50;15.00;;;;;25.36;46.49;101844.38;5097085;27;50988;-60
2021/09/06 06:13:18;;;;;;;;;21.25;17.50;;;;;25.35;46.13;101843.53;5098083;27;51064;-59
2021/09/06 06:15:43;;;;;;;;;15.75;15.25;;;;;25.35;46.06;101846.31;5077864;27;51191;-59
2021/09/06 06:18:08;;;;;;;;;19.75;18.50;;;;;25.35;46.34;101848.25;5098481;27;51091;-59
2021/09/06 06:20:34;;;;;;;;;16.00;14.50;;;;;25.34;46.31;101847.41;5089463;27;51178;-59
2021/09/06 06:23:00;;;;;;;;;15.75;15.25;;;;;25.33;47.24;101854.88;5094708;27;51158;-60
2021/09/06 06:25:25;;;;;;;;;16.50;13.00;;;;;25.34;46.74;101850.16;5095866;27;51202;-60
2021/09/06 06:27:50;;;;;;;;;16.50;16.00;;;;;25.35;47.34;101856.56;5090535;27;51160;-59
2021/09/06 06:30:16;;;;;;;;;14.75;14.75;;;;;25.35;47.00;101856.56;5092598;27;52748;-60
2021/09/06 06:32:41;;;;;;;;;16.25;16.00;;;;;25.35;46.93;101857.41;5093313;27;51096;-58
2021/09/06 06:35:07;;;;;;;;;17.75;16.50;;;;;25.36;47.02;101853.56;5087157;27;51134;-59
2021/09/06 06:37:32;;;;;;;;;16.75;15.25;;;;;25.37;47.21;101857.16;5094282;27;51203;-61
2021/09/06 06:39:57;;;;;;;;;14.50;14.00;;;;;25.38;47.28;101858.88;5096002;27;51720;-58
2021/09/06 06:42:23;;;;;;;;;21.50;17.25;;;;;25.38;47.29;101861.63;5094409;27;50965;-58
2021/09/06 06:44:48;;;;;;;;;16.50;16.50;;;;;25.37;47.17;101866.34;5075814;27;51179;-59
2021/09/06 06:47:13;;;;;;;;;17.00;17.00;;;;;25.38;47.62;101862.47;5098934;27;51013;-61
2021/09/06 06:49:39;;;;;;;;;18.00;15.75;;;;;25.38;47.25;101868.03;5096066;27;51723;-60
2021/09/06 06:52:04;;;;;;;;;18.50;16.75;;;;;25.40;47.34;101857.53;5095593;27;51005;-61
2021/09/06 06:54:30;;;;;;;;;15.25;15.00;;;;;25.42;47.28;101862.84;5095245;27;51196;-60
2021/09/06 06:56:55;;;;;;;;;14.00;13.50;;;;;25.41;47.35;101855.63;5098608;27;50976;-61
2021/09/06 06:59:20;;;;;;;;;23.50;17.50;;;;;25.42;47.51;101865.63;5098302;27;51803;-61
2021/09/06 07:01:46;;;;;;;;;17.25;16.00;;;;;25.42;47.28;101866.47;5098168;27;51041;-61
2021/09/06 07:04:11;;;;;;;;;14.75;12.50;;;;;25.43;47.58;101868.19;5098359;27;51363;-61
2021/09/06 07:06:36;;;;;;;;;18.25;15.50;;;;;25.42;47.08;101868.41;5098720;27;51371;-62
2021/09/06 07:09:02;;;;;;;;;14.50;14.25;;;;;25.43;47.43;101867.31;5098278;27;51919;-61
2021/09/06 07:11:27;;;;;;;;;14.00;13.00;;;;;25.43;47.02;101867.31;5098294;27;50968;-61
2021/09/06 07:13:53;;;;;;;;;13.75;12.75;;;;;25.45;47.13;101873.50;5098657;27;50998;-61
2021/09/06 07:16:18;;;;;;;;;16.00;15.25;;;;;25.44;47.53;101871.81;5098369;27;51454;-62
2021/09/06 07:18:43;;;;;;;;;16.25;13.25;;;;;25.44;47.20;101864.34;5097936;27;51032;-61
2021/09/06 07:21:09;;;;;;;;;14.00;12.50;;;;;25.45;47.00;101876.28;5098614;27;51031;-60
2021/09/06 07:23:34;;;;;;;;;14.50;13.25;;;;;25.46;47.39;101881.59;5098391;27;51023;-62
2021/09/06 07:25:59;;;;;;;;;14.50;13.00;;;;;25.46;47.32;101873.28;5096833;27;50949;-61
2021/09/06 07:28:25;;;;;;;;;13.75;13.50;;;;;25.46;47.19;101875.22;5097942;27;51721;-61
2021/09/06 07:30:50;;;;;;;;;17.25;15.00;;;;;25.48;47.42;101884.13;5097970;27;50969;-61
2021/09/06 07:33:16;;;;;;;;;12.25;12.25;;;;;25.47;47.34;101885.22;5098281;27;51185;-60
2021/09/06 07:35:41;;;;;;;;;13.50;13.50;;;;;25.48;47.39;101881.38;5098270;27;51090;-61
2021/09/06 07:38:06;;;;;;;;;16.00;13.00;;;;;25.50;47.51;101884.75;5097541;27;51641;-61
2021/09/06 07:40:32;;;;;;;;;13.25;13.25;;;;;25.49;47.31;101883.06;5097981;27;51374;-61
2021/09/06 07:42:57;;;;;;;;;14.25;12.25;;;;;25.51;47.22;101889.22;5098009;27;51145;-61
2021/09/06 07:45:22;;;;;;;;;13.75;12.50;;;;;25.50;47.56;101885.59;5097801;27;51309;-62
2021/09/06 07:47:48;;;;;;;;;15.00;15.00;;;;;25.51;47.26;101880.88;5097370;27;52008;-61
2021/09/06 07:50:14;;;;;;;;;15.25;12.50;;;;;25.51;46.91;101900.31;5097609;27;51079;-60
2021/09/06 07:52:40;;;;;;;;;16.25;13.75;;;;;25.52;47.35;101899.22;5097837;27;51000;-61
2021/09/06 07:55:07;;;;;;;;;16.50;12.00;;;;;25.52;47.47;101891.75;5097531;27;51285;-61
2021/09/06 07:57:33;;;;;;;;;14.75;13.00;;;;;25.52;47.32;101888.97;5097391;27;51730;-61
2021/09/06 07:59:59;;;;;;;;;12.75;11.25;;;;;25.52;47.23;101897.31;5097050;27;51074;-61
2021/09/06 08:02:24;;;;;;;;;14.50;12.75;;;;;25.53;47.26;101896.25;5097462;27;51128;-60
2021/09/06 08:04:50;;;;;;;;;14.00;13.50;;;;;25.54;47.43;101900.72;5097923;27;51069;-61
2021/09/06 08:07:15;;;;;;;;;12.50;11.75;;;;;25.54;47.27;101903.50;5097692;27;51087;-60
2021/09/06 08:09:40;;;;;;;;;13.00;12.00;;;;;25.56;47.56;101911.56;5097939;27;51092;-61
2021/09/06 08:12:07;;;;;;;;;12.50;12.25;;;;;25.55;47.17;101915.44;5097542;27;51250;-60
2021/09/06 08:14:34;;;;;;;;;13.25;12.50;;;;;25.57;47.39;101916.03;5097795;27;51304;-60
2021/09/06 08:16:59;;;;;;;;;12.50;12.50;;;;;25.57;47.00;101916.88;5097168;27;51248;-60
2021/09/06 08:19:27;;;;;;;;;13.00;11.50;;;;;25.58;47.23;101912.19;5096136;27;51098;-61
2021/09/06 08:21:53;;;;;;;;;13.00;12.50;;;;;25.58;47.47;101913.03;5097670;27;51200;-62
2021/09/06 08:24:19;;;;;;;;;11.50;11.50;;;;;25.58;47.42;101913.03;5097615;27;50999;-62
2021/09/06 08:26:44;;;;;;;;;12.75;11.00;;;;;25.59;47.21;101914.72;5096791;27;51310;-61
2021/09/06 08:29:10;;;;;;;;;13.00;12.50;;;;;25.59;47.00;101911.94;5097291;27;51134;-61
2021/09/06 08:31:36;;;;;;;;;11.50;11.00;;;;;25.61;47.39;101908.94;5097317;27;51090;-62
2021/09/06 08:34:01;;;;;;;;;13.25;11.25;;;;;25.61;47.13;101915.34;5097120;27;51255;-62
2021/09/06 08:36:27;;;;;;;;;17.00;13.25;;;;;25.61;47.28;101911.72;5096968;27;52044;-62
2021/09/06 08:38:52;;;;;;;;;10.50;9.50;;;;;25.62;47.31;101910.63;5097111;27;51066;-62
2021/09/06 08:41:18;;;;;;;;;16.00;12.00;;;;;25.62;47.22;101905.94;5096924;27;51043;-61
2021/09/06 08:43:43;;;;;;;;;12.25;12.25;;;;;25.64;47.12;101914.06;5097254;27;51119;-61
2021/09/06 08:46:09;;;;;;;;;13.25;13.25;;;;;25.63;47.15;101910.41;5096565;27;51038;-61
2021/09/06 08:48:35;;;;;;;;;13.25;12.00;;;;;25.65;46.97;101903.81;5096739;27;51073;-61
2021/09/06 08:51:00;;;;;;;;;9.25;9.25;;;;;25.66;46.82;101903.56;5097140;27;51022;-61
2021/09/06 08:53:26;;;;;;;;;11.50;11.50;;;;;25.66;47.31;101906.34;5096775;27;51096;-63
2021/09/06 08:55:54;;;;;;;;;12.50;10.50;;;;;25.67;47.13;101908.03;5096828;27;51078;-61
2021/09/06 08:58:21;;;;;;;;;11.25;10.00;;;;;25.69;47.48;101916.13;5096920;27;50995;-62
2021/09/06 09:00:48;;;;;;;;;11.25;9.25;;;;;25.69;47.25;101914.19;5096558;27;51039;-61
2021/09/06 09:03:14;;;;;;;;;10.75;10.50;;;;;25.71;47.08;101916.75;5096870;27;51156;-61
2021/09/06 09:05:54;;;;;;;;;9.25;9.25;;;;;25.71;47.27;101914.84;5096657;27;51071;-62
2021/09/06 09:08:21;;;;;;;;;14.25;12.25;;;;;25.73;47.19;101918.22;5096710;27;51485;-62
2021/09/06 09:10:47;;;;;;;;;11.25;9.25;;;;;25.73;47.22;101912.66;5096678;27;51102;-61
2021/09/06 09:13:12;;;;;;;;;11.25;10.25;;;;;25.74;47.06;101911.63;5096680;27;51098;-61
2021/09/06 09:15:38;;;;;;;;;10.75;10.50;;;;;25.74;47.34;101906.06;5095934;27;52222;-61
2021/09/06 09:18:06;;;;;;;;;10.25;10.00;;;;;25.76;47.26;101908.59;5096230;27;51173;-61
2021/09/06 09:20:46;;;;;;;;;9.75;9.50;;;;;25.76;47.14;101908.59;5096209;27;50996;-61
2021/09/06 09:23:11;;;;;;;;;10.75;10.00;;;;;25.77;47.08;101905.59;5096512;27;51073;-61
2021/09/06 09:25:36;;;;;;;;;10.25;9.00;;;;;25.78;47.12;101904.50;5096386;27;51102;-61
2021/09/06 09:28:03;;;;;;;;;12.50;11.25;;;;;25.80;47.31;101909.81;5095599;27;51009;-62
2021/09/06 09:30:34;;;;;;;;;11.50;11.00;;;;;25.80;47.10;101909.81;5096088;27;51079;-61
2021/09/06 09:33:17;;;;;;;;;14.50;11.25;;;;;25.81;47.42;101914.28;5096022;27;51198;-61
2021/09/06 09:35:42;;;;;;;;;11.75;10.25;;;;;25.81;47.33;101909.59;5095920;27;51049;-61
2021/09/06 09:38:11;;;;;;;;;11.50;11.50;;;;;25.82;47.31;101914.06;5096323;27;51347;-61
2021/09/06 09:40:42;;;;;;;;;11.00;8.25;;;;;25.83;47.22;101917.66;5095738;27;51049;-61
2021/09/06 09:43:07;;;;;;;;;13.50;9.50;;;;;25.83;47.30;101921.28;5096317;27;50926;-61
2021/09/06 09:45:34;;;;;;;;;11.50;11.50;;;;;25.84;47.28;101920.22;5095440;27;51806;-61
2021/09/06 09:48:01;;;;;;;;;11.75;11.00;;;;;25.85;46.99;101921.94;5095665;27;51151;-61
2021/09/06 09:50:30;;;;;;;;;8.75;7.50;;;;;25.86;47.10;101915.31;5096237;27;51101;-61
2021/09/06 09:52:55;;;;;;;;;16.00;11.25;;;;;25.87;47.28;101917.00;5095878;27;50901;-61
2021/09/06 09:55:22;;;;;;;;;9.00;8.75;;;;;25.88;46.99;101917.84;5095690;27;51897;-61
2021/09/06 09:57:47;;;;;;;;;10.00;10.00;;;;;25.88;46.99;101910.34;5095644;27;51267;-61
2021/09/06 10:00:14;;;;;;;;;11.25;9.50;;;;;25.90;47.34;101907.34;5077369;27;51666;-61
2021/09/06 10:02:46;;;;;;;;;9.75;9.75;;;;;25.90;47.20;101901.78;5095707;27;51450;-61
2021/09/06 10:05:12;;;;;;;;;9.50;8.50;;;;;25.92;47.26;101904.31;5095269;27;51981;-62
2021/09/06 10:07:42;;;;;;;;;10.00;9.25;;;;;25.92;47.11;101904.31;5095770;27;50902;-60
2021/09/06 10:10:18;;;;;;;;;9.00;9.00;;;;;25.92;47.35;101899.63;5077462;27;51073;-62
2021/09/06 10:12:45;;;;;;;;;8.25;8.25;;;;;25.94;47.24;101913.25;5095995;27;51282;-61
2021/09/06 10:15:11;;;;;;;;;7.25;7.25;;;;;25.94;46.95;101908.56;5095146;27;51906;-61
2021/09/06 10:17:48;;;;;;;;;10.00;9.75;;;;;25.95;47.34;101907.50;5095186;27;51100;-61
2021/09/06 10:20:13;;;;;;;;;10.25;10.25;;;;;25.96;46.93;101911.97;5095324;27;51032;-61
2021/09/06 10:22:40;;;;;;;;;11.00;9.75;;;;;25.97;47.21;101898.94;5095856;27;51037;-62
2021/09/06 10:25:08;;;;;;;;;11.00;9.00;;;;;25.98;47.20;101897.84;5095562;27;51003;-61
2021/09/06 10:27:36;;;;;;;;;8.50;8.50;;;;;25.98;47.13;101903.41;5094621;27;51095;-61
2021/09/06 10:30:09;;;;;;;;;9.75;9.75;;;;;25.98;46.97;101907.03;5095311;27;51328;-62
2021/09/06 10:32:40;;;;;;;;;10.75;9.00;;;;;25.99;47.13;101897.63;5095507;27;51319;-61
2021/09/06 10:35:15;;;;;;;;;9.00;7.00;;;;;26.00;47.10;101904.88;5095432;27;51658;-61
2021/09/06 10:37:43;;;;;;;;;10.75;9.00;;;;;26.01;47.28;101900.16;5095918;27;51355;-62
2021/09/06 10:40:11;;;;;;;;;9.75;8.75;;;;;26.00;47.37;101898.47;5076544;27;51113;-62
2021/09/06 10:42:38;;;;;;;;;10.25;9.25;;;;;26.02;47.22;101897.13;5098134;27;51401;-61
2021/09/06 10:45:06;;;;;;;;;9.00;7.75;;;;;26.02;47.22;101893.50;5098557;27;51862;-61
2021/09/06 10:47:36;;;;;;;;;9.00;9.00;;;;;26.04;46.94;101899.69;5098659;27;51343;-61
2021/09/06 10:50:34;;;;;;;;;14.50;10.50;;;;;26.04;46.92;101894.97;5098754;27;51205;-62
2021/09/06 10:53:00;;;;;;;;;8.50;7.50;;;;;26.04;46.95;101883.00;5082973;27;51091;-61
2021/09/06 10:55:25;;;;;;;;;8.75;8.00;;;;;26.05;47.02;101888.34;5098124;27;52079;-61
2021/09/06 10:57:50;;;;;;;;;9.50;9.25;;;;;26.07;46.98;101890.91;5098082;27;51054;-61
2021/09/06 11:00:18;;;;;;;;;11.25;9.00;;;;;26.07;47.33;101894.53;5098030;27;51042;-61
2021/09/06 11:02:47;;;;;;;;;10.00;9.00;;;;;26.07;47.05;101877.00;5098417;27;51309;-62
2021/09/06 11:05:23;;;;;;;;;8.50;8.50;;;;;26.08;46.74;101882.31;5097703;27;51072;-60
2021/09/06 11:07:49;;;;;;;;;9.50;9.25;;;;;26.08;46.83;101882.31;5079316;27;51335;-61